sensor_id;sensor_type;location;lat;lon;timestamp;P1;durP1;ratioP1;P2;durP2;ratioP2
44248;SDS011;29923;48.718;9.272;2022-09-14T00:00:28;9.10;;;1.83;;
44248;SDS011;29923;48.718;9.272;2022-09-14T00:02:53;5.35;;;1.58;;
44248;SDS011;29923;48.718;9.272;2022-09-14T00:05:19;4.63;;;1.77;;
44248;SDS011;29923;48.718;9.272;2022-09-14T00:07:44;5.70;;;1.48;;
44248;SDS011;29923;48.718;9.272;2022-09-14T00:10:10;7.10;;;1.30;;
44248;SDS011;29923;48.718;9.272;2022-09-14T00:12:35;5.75;;;1.83;;
44248;SDS011;29923;48.718;9.272;2022-09-14T00:15:00;2.58;;;1.08;;
44248;SDS011;29923;48.718;9.272;2022-09-14T00:17:26;5.78;;;1.73;;
44248;SDS011;29923;48.718;9.272;2022-09-14T00:19:51;6.18;;;1.42;;
44248;SDS011;29923;48.718;9.272;2022-09-14T00:22:17;7.32;;;2.08;;
44248;SDS011;29923;48.718;9.272;2022-09-14T00:24:43;4.50;;;2.15;;
44248;SDS011;29923;48.718;9.272;2022-09-14T00:27:08;2.85;;;1.67;;
44248;SDS011;29923;48.718;9.272;2022-09-14T00:29:34;10.85;;;1.90;;
44248;SDS011;29923;48.718;9.272;2022-09-14T00:31:59;4.72;;;1.73;;
44248;SDS011;29923;48.718;9.272;2022-09-14T00:34:25;5.50;;;2.42;;
44248;SDS011;29923;48.718;9.272;2022-09-14T00:36:51;6.07;;;1.77;;
44248;SDS011;29923;48.718;9.272;2022-09-14T00:39:17;8.15;;;2.58;;
44248;SDS011;29923;48.718;9.272;2022-09-14T00:41:47;6.70;;;1.80;;
44248;SDS011;29923;48.718;9.272;2022-09-14T00:46:43;4.07;;;2.00;;
44248;SDS011;29923;48.718;9.272;2022-09-14T00:49:11;13.60;;;2.08;;
44248;SDS011;29923;48.718;9.272;2022-09-14T00:51:53;3.67;;;1.73;;
44248;SDS011;29923;48.718;9.272;2022-09-14T00:54:23;5.05;;;1.80;;
44248;SDS011;29923;48.718;9.272;2022-09-14T00:56:48;8.18;;;1.85;;
44248;SDS011;29923;48.718;9.272;2022-09-14T00:59:16;6.82;;;2.10;;
44248;SDS011;29923;48.718;9.272;2022-09-14T01:01:44;4.25;;;2.20;;
44248;SDS011;29923;48.718;9.272;2022-09-14T01:04:09;4.72;;;2.25;;
44248;SDS011;29923;48.718;9.272;2022-09-14T01:06:37;3.92;;;1.63;;
44248;SDS011;29923;48.718;9.272;2022-09-14T01:09:51;4.03;;;1.83;;
44248;SDS011;29923;48.718;9.272;2022-09-14T01:17:18;5.50;;;2.17;;
44248;SDS011;29923;48.718;9.272;2022-09-14T01:28:49;9.32;;;3.00;;
44248;SDS011;29923;48.718;9.272;2022-09-14T01:31:19;18.92;;;2.95;;
44248;SDS011;29923;48.718;9.272;2022-09-14T01:33:52;11.52;;;2.53;;
44248;SDS011;29923;48.718;9.272;2022-09-14T01:36:25;20.33;;;3.03;;
44248;SDS011;29923;48.718;9.272;2022-09-14T01:38:52;10.25;;;2.78;;
44248;SDS011;29923;48.718;9.272;2022-09-14T01:41:20;4.88;;;2.10;;
44248;SDS011;29923;48.718;9.272;2022-09-14T01:43:55;12.00;;;2.75;;
44248;SDS011;29923;48.718;9.272;2022-09-14T01:46:24;8.05;;;2.30;;
44248;SDS011;29923;48.718;9.272;2022-09-14T01:49:03;5.78;;;1.98;;
44248;SDS011;29923;48.718;9.272;2022-09-14T01:51:36;8.90;;;2.53;;
44248;SDS011;29923;48.718;9.272;2022-09-14T01:54:09;10.40;;;2.65;;
44248;SDS011;29923;48.718;9.272;2022-09-14T01:56:52;6.53;;;2.50;;
44248;SDS011;29923;48.718;9.272;2022-09-14T01:59:23;17.77;;;3.17;;
44248;SDS011;29923;48.718;9.272;2022-09-14T02:01:53;7.00;;;2.08;;
44248;SDS011;29923;48.718;9.272;2022-09-14T02:04:25;11.05;;;2.63;;
44248;SDS011;29923;48.718;9.272;2022-09-14T02:07:11;8.13;;;2.08;;
44248;SDS011;29923;48.718;9.272;2022-09-14T02:09:37;7.40;;;1.88;;
44248;SDS011;29923;48.718;9.272;2022-09-14T02:12:02;11.68;;;2.15;;
44248;SDS011;29923;48.718;9.272;2022-09-14T02:14:28;7.43;;;2.00;;
44248;SDS011;29923;48.718;9.272;2022-09-14T02:16:54;8.35;;;2.28;;
44248;SDS011;29923;48.718;9.272;2022-09-14T02:19:20;6.10;;;2.20;;
44248;SDS011;29923;48.718;9.272;2022-09-14T02:21:45;10.70;;;2.08;;
44248;SDS011;29923;48.718;9.272;2022-09-14T02:24:11;8.85;;;2.40;;
44248;SDS011;29923;48.718;9.272;2022-09-14T02:26:36;7.82;;;2.83;;
44248;SDS011;29923;48.718;9.272;2022-09-14T02:29:02;9.52;;;2.13;;
44248;SDS011;29923;48.718;9.272;2022-09-14T02:31:45;7.70;;;2.13;;
44248;SDS011;29923;48.718;9.272;2022-09-14T02:36:49;11.43;;;2.80;;
44248;SDS011;29923;48.718;9.272;2022-09-14T02:52:42;9.05;;;2.42;;
44248;SDS011;29923;48.718;9.272;2022-09-14T02:55:20;4.40;;;2.57;;
44248;SDS011;29923;48.718;9.272;2022-09-14T02:58:06;6.35;;;1.90;;
44248;SDS011;29923;48.718;9.272;2022-09-14T03:00:35;5.03;;;2.00;;
44248;SDS011;29923;48.718;9.272;2022-09-14T03:03:05;9.27;;;2.15;;
44248;SDS011;29923;48.718;9.272;2022-09-14T03:05:32;7.47;;;2.25;;
44248;SDS011;29923;48.718;9.272;2022-09-14T03:07:58;8.38;;;2.53;;
44248;SDS011;29923;48.718;9.272;2022-09-14T03:10:24;12.27;;;4.38;;
44248;SDS011;29923;48.718;9.272;2022-09-14T03:12:49;12.13;;;3.90;;
44248;SDS011;29923;48.718;9.272;2022-09-14T03:15:15;8.43;;;3.50;;
44248;SDS011;29923;48.718;9.272;2022-09-14T03:17:43;9.43;;;3.85;;
44248;SDS011;29923;48.718;9.272;2022-09-14T03:20:10;12.95;;;3.42;;
44248;SDS011;29923;48.718;9.272;2022-09-14T03:22:35;11.02;;;3.17;;
44248;SDS011;29923;48.718;9.272;2022-09-14T03:25:00;10.20;;;3.30;;
44248;SDS011;29923;48.718;9.272;2022-09-14T03:27:26;13.40;;;4.82;;
44248;SDS011;29923;48.718;9.272;2022-09-14T03:29:51;11.93;;;4.10;;
44248;SDS011;29923;48.718;9.272;2022-09-14T03:32:16;10.85;;;3.58;;
44248;SDS011;29923;48.718;9.272;2022-09-14T03:34:42;17.88;;;3.78;;
44248;SDS011;29923;48.718;9.272;2022-09-14T03:37:07;9.40;;;2.50;;
44248;SDS011;29923;48.718;9.272;2022-09-14T03:39:32;9.23;;;2.20;;
44248;SDS011;29923;48.718;9.272;2022-09-14T03:41:58;9.30;;;3.17;;
44248;SDS011;29923;48.718;9.272;2022-09-14T03:44:23;14.15;;;3.92;;
44248;SDS011;29923;48.718;9.272;2022-09-14T03:46:48;11.52;;;3.92;;
44248;SDS011;29923;48.718;9.272;2022-09-14T03:49:14;10.43;;;4.05;;
44248;SDS011;29923;48.718;9.272;2022-09-14T03:51:39;8.18;;;2.83;;
44248;SDS011;29923;48.718;9.272;2022-09-14T03:54:04;11.05;;;4.93;;
44248;SDS011;29923;48.718;9.272;2022-09-14T03:56:30;14.88;;;4.53;;
44248;SDS011;29923;48.718;9.272;2022-09-14T03:58:55;17.48;;;6.35;;
44248;SDS011;29923;48.718;9.272;2022-09-14T04:01:21;12.93;;;4.90;;
44248;SDS011;29923;48.718;9.272;2022-09-14T04:03:47;11.15;;;5.82;;
44248;SDS011;29923;48.718;9.272;2022-09-14T04:06:13;10.50;;;5.38;;
44248;SDS011;29923;48.718;9.272;2022-09-14T04:08:40;10.68;;;6.43;;
44248;SDS011;29923;48.718;9.272;2022-09-14T04:11:07;13.43;;;6.68;;
44248;SDS011;29923;48.718;9.272;2022-09-14T04:13:32;20.83;;;7.90;;
44248;SDS011;29923;48.718;9.272;2022-09-14T04:15:58;17.77;;;7.95;;
44248;SDS011;29923;48.718;9.272;2022-09-14T04:18:24;15.23;;;8.35;;
44248;SDS011;29923;48.718;9.272;2022-09-14T04:20:53;12.73;;;7.30;;
44248;SDS011;29923;48.718;9.272;2022-09-14T04:23:21;17.70;;;7.20;;
44248;SDS011;29923;48.718;9.272;2022-09-14T04:25:47;23.45;;;10.07;;
44248;SDS011;29923;48.718;9.272;2022-09-14T04:28:12;15.52;;;8.50;;
44248;SDS011;29923;48.718;9.272;2022-09-14T04:30:38;22.00;;;11.77;;
44248;SDS011;29923;48.718;9.272;2022-09-14T04:33:03;17.63;;;8.50;;
44248;SDS011;29923;48.718;9.272;2022-09-14T04:35:28;21.58;;;6.82;;
44248;SDS011;29923;48.718;9.272;2022-09-14T04:37:54;15.98;;;9.18;;
44248;SDS011;29923;48.718;9.272;2022-09-14T04:40:19;13.75;;;6.03;;
44248;SDS011;29923;48.718;9.272;2022-09-14T04:42:45;19.38;;;11.40;;
44248;SDS011;29923;48.718;9.272;2022-09-14T04:45:11;14.02;;;7.15;;
44248;SDS011;29923;48.718;9.272;2022-09-14T04:47:37;8.50;;;4.97;;
44248;SDS011;29923;48.718;9.272;2022-09-14T04:50:03;11.20;;;5.72;;
44248;SDS011;29923;48.718;9.272;2022-09-14T04:52:28;14.70;;;6.93;;
44248;SDS011;29923;48.718;9.272;2022-09-14T04:54:54;12.68;;;6.15;;
44248;SDS011;29923;48.718;9.272;2022-09-14T04:57:19;13.73;;;6.20;;
44248;SDS011;29923;48.718;9.272;2022-09-14T04:59:44;12.60;;;8.00;;
44248;SDS011;29923;48.718;9.272;2022-09-14T05:02:10;8.68;;;5.57;;
44248;SDS011;29923;48.718;9.272;2022-09-14T05:04:35;9.10;;;5.88;;
44248;SDS011;29923;48.718;9.272;2022-09-14T05:07:00;9.27;;;5.53;;
44248;SDS011;29923;48.718;9.272;2022-09-14T05:09:26;7.68;;;4.70;;
44248;SDS011;29923;48.718;9.272;2022-09-14T05:11:51;13.20;;;7.22;;
44248;SDS011;29923;48.718;9.272;2022-09-14T05:14:16;10.10;;;4.90;;
44248;SDS011;29923;48.718;9.272;2022-09-14T05:16:42;9.43;;;5.72;;
44248;SDS011;29923;48.718;9.272;2022-09-14T05:19:10;6.45;;;4.38;;
44248;SDS011;29923;48.718;9.272;2022-09-14T05:21:37;14.23;;;6.25;;
44248;SDS011;29923;48.718;9.272;2022-09-14T05:24:04;9.85;;;5.80;;
44248;SDS011;29923;48.718;9.272;2022-09-14T05:26:36;10.02;;;5.05;;
44248;SDS011;29923;48.718;9.272;2022-09-14T05:29:02;12.18;;;5.65;;
44248;SDS011;29923;48.718;9.272;2022-09-14T05:31:28;9.10;;;5.80;;
44248;SDS011;29923;48.718;9.272;2022-09-14T05:33:54;5.80;;;4.00;;
44248;SDS011;29923;48.718;9.272;2022-09-14T05:36:20;6.07;;;3.60;;
44248;SDS011;29923;48.718;9.272;2022-09-14T05:38:46;5.43;;;3.40;;
44248;SDS011;29923;48.718;9.272;2022-09-14T05:41:13;7.00;;;3.97;;
44248;SDS011;29923;48.718;9.272;2022-09-14T05:43:39;5.72;;;3.38;;
44248;SDS011;29923;48.718;9.272;2022-09-14T05:46:05;7.65;;;3.40;;
44248;SDS011;29923;48.718;9.272;2022-09-14T05:48:36;7.82;;;3.40;;
44248;SDS011;29923;48.718;9.272;2022-09-14T05:51:03;9.77;;;3.72;;
44248;SDS011;29923;48.718;9.272;2022-09-14T05:53:31;7.35;;;3.10;;
44248;SDS011;29923;48.718;9.272;2022-09-14T05:56:04;7.50;;;3.40;;
44248;SDS011;29923;48.718;9.272;2022-09-14T05:58:34;6.78;;;3.53;;
44248;SDS011;29923;48.718;9.272;2022-09-14T06:01:14;8.98;;;4.50;;
44248;SDS011;29923;48.718;9.272;2022-09-14T06:03:40;12.30;;;8.02;;
44248;SDS011;29923;48.718;9.272;2022-09-14T06:06:07;4.93;;;3.30;;
44248;SDS011;29923;48.718;9.272;2022-09-14T06:08:33;11.90;;;3.65;;
44248;SDS011;29923;48.718;9.272;2022-09-14T06:11:06;11.50;;;3.45;;
44248;SDS011;29923;48.718;9.272;2022-09-14T06:16:05;7.40;;;3.80;;
44248;SDS011;29923;48.718;9.272;2022-09-14T06:18:32;11.70;;;3.83;;
44248;SDS011;29923;48.718;9.272;2022-09-14T06:20:58;8.50;;;4.20;;
44248;SDS011;29923;48.718;9.272;2022-09-14T06:23:25;5.63;;;3.28;;
44248;SDS011;29923;48.718;9.272;2022-09-14T06:25:54;10.73;;;3.33;;
44248;SDS011;29923;48.718;9.272;2022-09-14T06:28:20;10.77;;;3.70;;
44248;SDS011;29923;48.718;9.272;2022-09-14T06:30:46;10.20;;;3.83;;
44248;SDS011;29923;48.718;9.272;2022-09-14T06:33:11;6.32;;;3.65;;
44248;SDS011;29923;48.718;9.272;2022-09-14T06:35:37;7.65;;;4.05;;
44248;SDS011;29923;48.718;9.272;2022-09-14T06:38:02;8.18;;;3.47;;
44248;SDS011;29923;48.718;9.272;2022-09-14T06:40:27;8.27;;;3.40;;
44248;SDS011;29923;48.718;9.272;2022-09-14T06:42:53;9.52;;;4.05;;
44248;SDS011;29923;48.718;9.272;2022-09-14T06:45:18;7.63;;;3.28;;
44248;SDS011;29923;48.718;9.272;2022-09-14T06:47:44;8.45;;;3.08;;
44248;SDS011;29923;48.718;9.272;2022-09-14T06:50:09;6.97;;;3.67;;
44248;SDS011;29923;48.718;9.272;2022-09-14T06:52:35;10.35;;;3.42;;
44248;SDS011;29923;48.718;9.272;2022-09-14T06:55:01;7.57;;;3.55;;
44248;SDS011;29923;48.718;9.272;2022-09-14T06:57:26;8.80;;;3.33;;
44248;SDS011;29923;48.718;9.272;2022-09-14T06:59:52;8.18;;;3.53;;
44248;SDS011;29923;48.718;9.272;2022-09-14T07:02:17;5.63;;;3.20;;
44248;SDS011;29923;48.718;9.272;2022-09-14T07:04:43;10.23;;;4.38;;
44248;SDS011;29923;48.718;9.272;2022-09-14T07:07:08;11.68;;;4.68;;
44248;SDS011;29923;48.718;9.272;2022-09-14T07:09:34;9.85;;;3.08;;
44248;SDS011;29923;48.718;9.272;2022-09-14T07:12:00;6.45;;;2.95;;
44248;SDS011;29923;48.718;9.272;2022-09-14T07:14:26;5.50;;;3.15;;
44248;SDS011;29923;48.718;9.272;2022-09-14T07:16:51;12.10;;;3.15;;
44248;SDS011;29923;48.718;9.272;2022-09-14T07:19:16;8.90;;;6.18;;
44248;SDS011;29923;48.718;9.272;2022-09-14T07:21:42;7.45;;;3.30;;
44248;SDS011;29923;48.718;9.272;2022-09-14T07:24:07;6.25;;;2.83;;
44248;SDS011;29923;48.718;9.272;2022-09-14T07:26:36;8.15;;;3.10;;
44248;SDS011;29923;48.718;9.272;2022-09-14T07:29:08;9.05;;;3.05;;
44248;SDS011;29923;48.718;9.272;2022-09-14T07:31:37;7.90;;;3.08;;
44248;SDS011;29923;48.718;9.272;2022-09-14T07:34:04;8.75;;;3.08;;
44248;SDS011;29923;48.718;9.272;2022-09-14T07:36:31;4.97;;;3.08;;
44248;SDS011;29923;48.718;9.272;2022-09-14T07:38:57;6.72;;;2.90;;
44248;SDS011;29923;48.718;9.272;2022-09-14T07:41:24;9.02;;;3.08;;
44248;SDS011;29923;48.718;9.272;2022-09-14T07:43:53;7.28;;;2.55;;
44248;SDS011;29923;48.718;9.272;2022-09-14T07:46:20;8.35;;;3.05;;
44248;SDS011;29923;48.718;9.272;2022-09-14T07:48:46;6.30;;;2.58;;
44248;SDS011;29923;48.718;9.272;2022-09-14T07:51:12;5.13;;;2.97;;
44248;SDS011;29923;48.718;9.272;2022-09-14T07:53:39;6.13;;;2.60;;
44248;SDS011;29923;48.718;9.272;2022-09-14T07:56:11;8.65;;;2.75;;
44248;SDS011;29923;48.718;9.272;2022-09-14T07:58:37;5.88;;;2.47;;
44248;SDS011;29923;48.718;9.272;2022-09-14T08:01:04;6.97;;;2.75;;
44248;SDS011;29923;48.718;9.272;2022-09-14T08:03:40;3.75;;;2.10;;
44248;SDS011;29923;48.718;9.272;2022-09-14T08:06:08;4.03;;;2.50;;
44248;SDS011;29923;48.718;9.272;2022-09-14T08:08:36;10.95;;;2.35;;
44248;SDS011;29923;48.718;9.272;2022-09-14T08:11:04;8.75;;;2.60;;
44248;SDS011;29923;48.718;9.272;2022-09-14T08:13:32;5.55;;;2.58;;
44248;SDS011;29923;48.718;9.272;2022-09-14T08:15:58;4.38;;;2.03;;
44248;SDS011;29923;48.718;9.272;2022-09-14T08:18:25;9.10;;;2.67;;
44248;SDS011;29923;48.718;9.272;2022-09-14T08:20:51;8.40;;;2.10;;
44248;SDS011;29923;48.718;9.272;2022-09-14T08:23:16;6.82;;;2.72;;
44248;SDS011;29923;48.718;9.272;2022-09-14T08:25:41;5.65;;;2.10;;
44248;SDS011;29923;48.718;9.272;2022-09-14T08:28:07;8.05;;;2.50;;
44248;SDS011;29923;48.718;9.272;2022-09-14T08:30:32;7.95;;;2.70;;
44248;SDS011;29923;48.718;9.272;2022-09-14T08:32:57;7.47;;;2.20;;
44248;SDS011;29923;48.718;9.272;2022-09-14T08:35:23;8.23;;;2.20;;
44248;SDS011;29923;48.718;9.272;2022-09-14T08:37:48;5.88;;;2.08;;
44248;SDS011;29923;48.718;9.272;2022-09-14T08:40:13;12.27;;;2.40;;
44248;SDS011;29923;48.718;9.272;2022-09-14T08:42:41;5.63;;;1.90;;
44248;SDS011;29923;48.718;9.272;2022-09-14T08:45:06;8.05;;;2.70;;
44248;SDS011;29923;48.718;9.272;2022-09-14T08:47:33;11.45;;;3.67;;
44248;SDS011;29923;48.718;9.272;2022-09-14T08:52:34;4.15;;;1.85;;
44248;SDS011;29923;48.718;9.272;2022-09-14T08:55:14;8.00;;;2.15;;
44248;SDS011;29923;48.718;9.272;2022-09-14T09:00:32;8.25;;;2.22;;
44248;SDS011;29923;48.718;9.272;2022-09-14T09:03:24;4.68;;;3.28;;
44248;SDS011;29923;48.718;9.272;2022-09-14T09:05:52;7.03;;;2.60;;
44248;SDS011;29923;48.718;9.272;2022-09-14T09:11:24;8.80;;;2.97;;
44248;SDS011;29923;48.718;9.272;2022-09-14T09:13:52;7.93;;;2.38;;
44248;SDS011;29923;48.718;9.272;2022-09-14T09:16:19;9.05;;;2.67;;
44248;SDS011;29923;48.718;9.272;2022-09-14T09:18:53;5.28;;;2.30;;
44248;SDS011;29923;48.718;9.272;2022-09-14T09:21:24;5.55;;;2.30;;
44248;SDS011;29923;48.718;9.272;2022-09-14T09:24:28;8.77;;;2.10;;
44248;SDS011;29923;48.718;9.272;2022-09-14T09:26:59;10.63;;;2.13;;
44248;SDS011;29923;48.718;9.272;2022-09-14T09:29:24;6.40;;;2.05;;
44248;SDS011;29923;48.718;9.272;2022-09-14T09:31:51;5.30;;;1.80;;
44248;SDS011;29923;48.718;9.272;2022-09-14T09:34:21;7.68;;;1.95;;
44248;SDS011;29923;48.718;9.272;2022-09-14T09:36:51;6.22;;;2.20;;
44248;SDS011;29923;48.718;9.272;2022-09-14T09:39:16;5.28;;;2.08;;
44248;SDS011;29923;48.718;9.272;2022-09-14T09:41:43;4.47;;;1.88;;
44248;SDS011;29923;48.718;9.272;2022-09-14T09:47:33;4.25;;;1.90;;
44248;SDS011;29923;48.718;9.272;2022-09-14T09:52:37;4.95;;;1.92;;
44248;SDS011;29923;48.718;9.272;2022-09-14T09:55:02;9.88;;;1.95;;
44248;SDS011;29923;48.718;9.272;2022-09-14T09:57:33;7.45;;;2.08;;
44248;SDS011;29923;48.718;9.272;2022-09-14T10:00:33;4.70;;;1.73;;
44248;SDS011;29923;48.718;9.272;2022-09-14T10:02:53;9.07;;;1.98;;
44248;SDS011;29923;48.718;9.272;2022-09-14T10:05:24;5.32;;;1.92;;
44248;SDS011;29923;48.718;9.272;2022-09-14T10:07:56;5.18;;;1.83;;
44248;SDS011;29923;48.718;9.272;2022-09-14T10:10:38;4.78;;;2.10;;
44248;SDS011;29923;48.718;9.272;2022-09-14T10:16:31;3.22;;;1.92;;
44248;SDS011;29923;48.718;9.272;2022-09-14T10:18:50;6.57;;;2.45;;
44248;SDS011;29923;48.718;9.272;2022-09-14T10:21:17;4.30;;;1.60;;
44248;SDS011;29923;48.718;9.272;2022-09-14T10:24:00;6.18;;;1.92;;
44248;SDS011;29923;48.718;9.272;2022-09-14T10:26:31;6.75;;;2.22;;
44248;SDS011;29923;48.718;9.272;2022-09-14T10:31:52;4.70;;;1.85;;
44248;SDS011;29923;48.718;9.272;2022-09-14T10:34:22;7.93;;;1.67;;
44248;SDS011;29923;48.718;9.272;2022-09-14T10:36:51;7.22;;;2.03;;
44248;SDS011;29923;48.718;9.272;2022-09-14T10:39:35;4.93;;;1.90;;
44248;SDS011;29923;48.718;9.272;2022-09-14T10:42:29;6.25;;;1.95;;
44248;SDS011;29923;48.718;9.272;2022-09-14T10:47:27;5.80;;;1.52;;
44248;SDS011;29923;48.718;9.272;2022-09-14T10:50:06;5.82;;;1.40;;
44248;SDS011;29923;48.718;9.272;2022-09-14T10:55:27;7.20;;;2.17;;
44248;SDS011;29923;48.718;9.272;2022-09-14T11:06:03;6.22;;;2.08;;
44248;SDS011;29923;48.718;9.272;2022-09-14T11:14:24;6.13;;;2.17;;
44248;SDS011;29923;48.718;9.272;2022-09-14T11:25:56;3.35;;;1.40;;
44248;SDS011;29923;48.718;9.272;2022-09-14T11:28:28;7.45;;;1.88;;
44248;SDS011;29923;48.718;9.272;2022-09-14T11:31:01;5.22;;;1.58;;
44248;SDS011;29923;48.718;9.272;2022-09-14T11:36:20;5.90;;;1.75;;
44248;SDS011;29923;48.718;9.272;2022-09-14T11:38:51;3.92;;;1.55;;
44248;SDS011;29923;48.718;9.272;2022-09-14T11:41:30;3.78;;;1.55;;
44248;SDS011;29923;48.718;9.272;2022-09-14T11:44:40;6.38;;;1.70;;
44248;SDS011;29923;48.718;9.272;2022-09-14T11:46:54;5.82;;;1.50;;
44248;SDS011;29923;48.718;9.272;2022-09-14T11:49:24;2.90;;;1.27;;
44248;SDS011;29923;48.718;9.272;2022-09-14T11:52:01;5.68;;;1.42;;
44248;SDS011;29923;48.718;9.272;2022-09-14T11:54:45;10.40;;;1.88;;
44248;SDS011;29923;48.718;9.272;2022-09-14T11:57:13;3.05;;;1.30;;
44248;SDS011;29923;48.718;9.272;2022-09-14T12:12:55;7.03;;;1.40;;
44248;SDS011;29923;48.718;9.272;2022-09-14T12:51:12;3.65;;;1.63;;
44248;SDS011;29923;48.718;9.272;2022-09-14T12:59:34;6.03;;;1.80;;
44248;SDS011;29923;48.718;9.272;2022-09-14T13:04:59;6.85;;;2.00;;
44248;SDS011;29923;48.718;9.272;2022-09-14T13:07:32;6.35;;;1.50;;
44248;SDS011;29923;48.718;9.272;2022-09-14T13:10:00;5.82;;;2.10;;
44248;SDS011;29923;48.718;9.272;2022-09-14T13:14:59;7.07;;;1.50;;
44248;SDS011;29923;48.718;9.272;2022-09-14T13:17:27;6.28;;;1.50;;
44248;SDS011;29923;48.718;9.272;2022-09-14T13:19:57;3.67;;;1.70;;
44248;SDS011;29923;48.718;9.272;2022-09-14T13:22:25;5.30;;;1.80;;
44248;SDS011;29923;48.718;9.272;2022-09-14T13:24:53;5.53;;;1.80;;
44248;SDS011;29923;48.718;9.272;2022-09-14T13:27:24;5.57;;;1.60;;
44248;SDS011;29923;48.718;9.272;2022-09-14T13:32:27;4.07;;;1.30;;
44248;SDS011;29923;48.718;9.272;2022-09-14T13:34:52;4.78;;;1.20;;
44248;SDS011;29923;48.718;9.272;2022-09-14T13:37:19;4.90;;;1.65;;
44248;SDS011;29923;48.718;9.272;2022-09-14T13:39:49;3.00;;;1.42;;
44248;SDS011;29923;48.718;9.272;2022-09-14T13:42:16;4.78;;;1.60;;
44248;SDS011;29923;48.718;9.272;2022-09-14T13:44:42;5.22;;;1.90;;
44248;SDS011;29923;48.718;9.272;2022-09-14T13:47:13;2.67;;;1.50;;
44248;SDS011;29923;48.718;9.272;2022-09-14T13:49:41;5.15;;;1.60;;
44248;SDS011;29923;48.718;9.272;2022-09-14T13:54:48;3.60;;;1.45;;
44248;SDS011;29923;48.718;9.272;2022-09-14T13:57:32;5.47;;;1.50;;
44248;SDS011;29923;48.718;9.272;2022-09-14T14:00:05;7.55;;;4.30;;
44248;SDS011;29923;48.718;9.272;2022-09-14T14:02:34;4.78;;;1.20;;
44248;SDS011;29923;48.718;9.272;2022-09-14T14:05:00;1.98;;;1.10;;
44248;SDS011;29923;48.718;9.272;2022-09-14T14:07:30;5.43;;;1.33;;
44248;SDS011;29923;48.718;9.272;2022-09-14T14:09:57;4.80;;;1.20;;
44248;SDS011;29923;48.718;9.272;2022-09-14T14:12:27;2.80;;;1.05;;
44248;SDS011;29923;48.718;9.272;2022-09-14T14:19:54;2.92;;;1.45;;
44248;SDS011;29923;48.718;9.272;2022-09-14T14:22:33;4.43;;;1.30;;
44248;SDS011;29923;48.718;9.272;2022-09-14T14:24:59;2.58;;;1.10;;
44248;SDS011;29923;48.718;9.272;2022-09-14T14:27:34;3.72;;;1.13;;
44248;SDS011;29923;48.718;9.272;2022-09-14T14:30:07;3.90;;;1.25;;
44248;SDS011;29923;48.718;9.272;2022-09-14T14:32:48;3.13;;;1.20;;
44248;SDS011;29923;48.718;9.272;2022-09-14T14:35:17;3.63;;;0.90;;
44248;SDS011;29923;48.718;9.272;2022-09-14T14:37:46;4.75;;;0.82;;
44248;SDS011;29923;48.718;9.272;2022-09-14T14:40:13;2.42;;;0.90;;
44248;SDS011;29923;48.718;9.272;2022-09-14T14:42:39;5.15;;;1.10;;
44248;SDS011;29923;48.718;9.272;2022-09-14T14:45:05;4.00;;;0.82;;
44248;SDS011;29923;48.718;9.272;2022-09-14T14:47:31;3.00;;;1.00;;
44248;SDS011;29923;48.718;9.272;2022-09-14T14:49:57;2.33;;;0.90;;
44248;SDS011;29923;48.718;9.272;2022-09-14T14:52:23;1.63;;;0.57;;
44248;SDS011;29923;48.718;9.272;2022-09-14T14:54:48;6.63;;;1.42;;
44248;SDS011;29923;48.718;9.272;2022-09-14T14:57:14;2.72;;;0.80;;
44248;SDS011;29923;48.718;9.272;2022-09-14T14:59:39;1.77;;;0.60;;
44248;SDS011;29923;48.718;9.272;2022-09-14T15:02:05;1.85;;;0.60;;
44248;SDS011;29923;48.718;9.272;2022-09-14T15:04:31;1.42;;;0.70;;
44248;SDS011;29923;48.718;9.272;2022-09-14T15:06:56;2.30;;;0.88;;
44248;SDS011;29923;48.718;9.272;2022-09-14T15:09:25;4.78;;;1.00;;
44248;SDS011;29923;48.718;9.272;2022-09-14T15:11:52;3.63;;;1.00;;
44248;SDS011;29923;48.718;9.272;2022-09-14T15:14:18;3.15;;;1.00;;
44248;SDS011;29923;48.718;9.272;2022-09-14T15:16:45;4.75;;;1.55;;
44248;SDS011;29923;48.718;9.272;2022-09-14T15:19:11;1.88;;;1.00;;
44248;SDS011;29923;48.718;9.272;2022-09-14T15:21:37;3.35;;;1.30;;
44248;SDS011;29923;48.718;9.272;2022-09-14T15:24:03;2.72;;;1.00;;
44248;SDS011;29923;48.718;9.272;2022-09-14T15:26:29;4.38;;;1.00;;
44248;SDS011;29923;48.718;9.272;2022-09-14T15:28:54;2.58;;;1.05;;
44248;SDS011;29923;48.718;9.272;2022-09-14T15:31:19;6.05;;;0.85;;
44248;SDS011;29923;48.718;9.272;2022-09-14T15:33:45;4.57;;;1.00;;
44248;SDS011;29923;48.718;9.272;2022-09-14T15:36:10;3.38;;;1.33;;
44248;SDS011;29923;48.718;9.272;2022-09-14T15:38:36;3.08;;;1.20;;
44248;SDS011;29923;48.718;9.272;2022-09-14T15:41:01;2.38;;;1.10;;
44248;SDS011;29923;48.718;9.272;2022-09-14T15:43:27;2.45;;;1.27;;
44248;SDS011;29923;48.718;9.272;2022-09-14T15:45:52;2.00;;;0.70;;
44248;SDS011;29923;48.718;9.272;2022-09-14T15:48:18;5.65;;;0.85;;
44248;SDS011;29923;48.718;9.272;2022-09-14T15:50:44;2.45;;;0.60;;
44248;SDS011;29923;48.718;9.272;2022-09-14T15:53:11;1.63;;;0.60;;
44248;SDS011;29923;48.718;9.272;2022-09-14T15:55:38;1.75;;;0.80;;
44248;SDS011;29923;48.718;9.272;2022-09-14T15:58:04;1.50;;;0.80;;
44248;SDS011;29923;48.718;9.272;2022-09-14T16:00:30;2.95;;;0.63;;
44248;SDS011;29923;48.718;9.272;2022-09-14T16:02:55;1.88;;;0.60;;
44248;SDS011;29923;48.718;9.272;2022-09-14T16:05:21;2.20;;;0.93;;
44248;SDS011;29923;48.718;9.272;2022-09-14T16:07:46;4.90;;;0.77;;
44248;SDS011;29923;48.718;9.272;2022-09-14T16:10:12;2.92;;;0.85;;
44248;SDS011;29923;48.718;9.272;2022-09-14T16:12:37;1.13;;;0.60;;
44248;SDS011;29923;48.718;9.272;2022-09-14T16:15:02;3.10;;;0.80;;
44248;SDS011;29923;48.718;9.272;2022-09-14T16:17:28;1.27;;;0.60;;
44248;SDS011;29923;48.718;9.272;2022-09-14T16:19:53;4.88;;;0.88;;
44248;SDS011;29923;48.718;9.272;2022-09-14T16:22:19;4.90;;;0.80;;
44248;SDS011;29923;48.718;9.272;2022-09-14T16:24:45;2.47;;;0.75;;
44248;SDS011;29923;48.718;9.272;2022-09-14T16:27:11;2.88;;;0.63;;
44248;SDS011;29923;48.718;9.272;2022-09-14T16:29:36;2.90;;;0.77;;
44248;SDS011;29923;48.718;9.272;2022-09-14T16:32:03;2.60;;;0.70;;
44248;SDS011;29923;48.718;9.272;2022-09-14T16:34:28;1.25;;;0.73;;
44248;SDS011;29923;48.718;9.272;2022-09-14T16:36:55;2.83;;;0.95;;
44248;SDS011;29923;48.718;9.272;2022-09-14T16:39:23;1.45;;;0.80;;
44248;SDS011;29923;48.718;9.272;2022-09-14T16:41:49;2.28;;;0.65;;
44248;SDS011;29923;48.718;9.272;2022-09-14T16:44:18;1.95;;;0.57;;
44248;SDS011;29923;48.718;9.272;2022-09-14T16:46:44;1.33;;;0.70;;
44248;SDS011;29923;48.718;9.272;2022-09-14T16:49:10;0.45;;;0.45;;
44248;SDS011;29923;48.718;9.272;2022-09-14T16:51:36;4.45;;;0.98;;
44248;SDS011;29923;48.718;9.272;2022-09-14T16:54:02;3.13;;;0.70;;
44248;SDS011;29923;48.718;9.272;2022-09-14T16:56:29;4.53;;;0.98;;
44248;SDS011;29923;48.718;9.272;2022-09-14T16:58:56;2.08;;;0.50;;
44248;SDS011;29923;48.718;9.272;2022-09-14T17:01:24;2.88;;;0.90;;
44248;SDS011;29923;48.718;9.272;2022-09-14T17:03:51;1.38;;;0.80;;
44248;SDS011;29923;48.718;9.272;2022-09-14T17:06:18;6.80;;;1.08;;
44248;SDS011;29923;48.718;9.272;2022-09-14T17:08:46;2.30;;;0.70;;
44248;SDS011;29923;48.718;9.272;2022-09-14T17:11:12;2.85;;;0.75;;
44248;SDS011;29923;48.718;9.272;2022-09-14T17:13:38;2.63;;;0.80;;
44248;SDS011;29923;48.718;9.272;2022-09-14T17:18:29;1.48;;;0.63;;
44248;SDS011;29923;48.718;9.272;2022-09-14T17:20:56;2.28;;;0.77;;
44248;SDS011;29923;48.718;9.272;2022-09-14T17:23:22;3.28;;;0.88;;
44248;SDS011;29923;48.718;9.272;2022-09-14T17:25:48;2.17;;;0.80;;
44248;SDS011;29923;48.718;9.272;2022-09-14T17:28:14;1.55;;;0.77;;
44248;SDS011;29923;48.718;9.272;2022-09-14T17:30:40;2.17;;;0.93;;